MPH9284 EPWA-EHAM
Flight info
| Callsign | MPH9284 |
|---|---|
| Flight time | N/A |
| Altitude | 34000 |
| Route | LOLSI T174 INDIG DCT GOVEN DCT NORKU |
| Aircraft | MD11/H-SDE1E2E3FGHIJ2J3J4J5M1RWXY/LB1D1 |
Departure
| Time | N/A |
|---|---|
| Airport | Warsaw Chopin Airport (EPWA) |
Arrival
| Time | 2026-04-30 18:47 |
|---|---|
| Airport | Amsterdam Airport Schiphol (EHAM) |
| Time | Latitude | Longitude | Altitude | Speed | Heading |
|---|---|---|---|---|---|
| 2026-04-30 17:39 | 52.05627 | 15.04552 | 34407 ft | 502 kts | 277° |
| 2026-04-30 17:42 | 52.07214 | 14.48366 | 34407 ft | 495 kts | 281° |
| 2026-04-30 17:43 | 52.08643 | 14.20462 | 34412 ft | 496 kts | 281° |
| 2026-04-30 17:44 | 52.10245 | 13.86917 | 34375 ft | 496 kts | 279° |
| 2026-04-30 17:47 | 52.12434 | 13.36865 | 34375 ft | 493 kts | 278° |
| 2026-04-30 17:48 | 52.13939 | 12.98056 | 34416 ft | 490 kts | 278° |
| 2026-04-30 17:50 | 52.15567 | 12.53955 | 34419 ft | 488 kts | 278° |
| 2026-04-30 17:52 | 52.16677 | 12.20906 | 34425 ft | 486 kts | 277° |
| 2026-04-30 17:54 | 52.18074 | 11.71411 | 34423 ft | 486 kts | 276° |
| 2026-04-30 17:56 | 52.19228 | 11.27332 | 34420 ft | 485 kts | 275° |
| 2026-04-30 17:58 | 52.19980 | 10.94399 | 34425 ft | 485 kts | 275° |
| 2026-04-30 18:00 | 52.20503 | 10.51080 | 34426 ft | 482 kts | 274° |
| 2026-04-30 18:01 | 52.21016 | 10.23830 | 34420 ft | 480 kts | 274° |
| 2026-04-30 18:02 | 52.21499 | 9.91148 | 34423 ft | 480 kts | 274° |
| 2026-04-30 18:04 | 52.21886 | 9.58608 | 34421 ft | 479 kts | 273° |
| 2026-04-30 18:06 | 52.22224 | 9.15161 | 34401 ft | 479 kts | 272° |
| 2026-04-30 18:08 | 52.22373 | 8.77127 | 34394 ft | 477 kts | 272° |
| 2026-04-30 18:09 | 52.22424 | 8.57757 | 33191 ft | 452 kts | 272° |
| 2026-04-30 18:10 | 52.22452 | 8.37084 | 28403 ft | 463 kts | 271° |
| 2026-04-30 18:11 | 52.22437 | 8.15888 | 26425 ft | 467 kts | 271° |
| 2026-04-30 18:11 | 52.22401 | 7.99971 | 26373 ft | 468 kts | 270° |
| 2026-04-30 18:12 | 52.22327 | 7.84131 | 26371 ft | 468 kts | 269° |
| 2026-04-30 18:13 | 52.22227 | 7.73509 | 26376 ft | 467 kts | 269° |
| 2026-04-30 18:13 | 52.22110 | 7.57588 | 26370 ft | 468 kts | 270° |
| 2026-04-30 18:14 | 52.22037 | 7.46995 | 26366 ft | 467 kts | 270° |
| 2026-04-30 18:15 | 52.21910 | 7.31097 | 26364 ft | 467 kts | 269° |
| 2026-04-30 18:15 | 52.21760 | 7.15144 | 26052 ft | 468 kts | 269° |
| 2026-04-30 18:16 | 52.21672 | 7.04592 | 25669 ft | 465 kts | 271° |
| 2026-04-30 18:16 | 52.22989 | 6.94380 | 25127 ft | 461 kts | 297° |
| 2026-04-30 18:17 | 52.24654 | 6.89966 | 24799 ft | 456 kts | 308° |
| 2026-04-30 18:17 | 52.26694 | 6.85964 | 24440 ft | 460 kts | 313° |
| 2026-04-30 18:17 | 52.30956 | 6.78301 | 23336 ft | 451 kts | 316° |
| 2026-04-30 18:18 | 52.33351 | 6.75064 | 22767 ft | 444 kts | 330° |
| 2026-04-30 18:18 | 52.36032 | 6.72780 | 22210 ft | 439 kts | 338° |
| 2026-04-30 18:18 | 52.38850 | 6.70906 | 21694 ft | 435 kts | 341° |
| 2026-04-30 18:18 | 52.41679 | 6.69183 | 21227 ft | 432 kts | 342° |
| 2026-04-30 18:19 | 52.44498 | 6.67508 | 20825 ft | 430 kts | 342° |
| 2026-04-30 18:19 | 52.47301 | 6.65847 | 20491 ft | 428 kts | 342° |
| 2026-04-30 18:19 | 52.50103 | 6.64181 | 20174 ft | 427 kts | 342° |
| 2026-04-30 18:19 | 52.52886 | 6.62518 | 19856 ft | 425 kts | 343° |
| 2026-04-30 18:20 | 52.55668 | 6.60845 | 19610 ft | 424 kts | 342° |
| 2026-04-30 18:20 | 52.58438 | 6.59170 | 19363 ft | 423 kts | 342° |
| 2026-04-30 18:20 | 52.61196 | 6.57495 | 19123 ft | 422 kts | 342° |
| 2026-04-30 18:20 | 52.63944 | 6.55819 | 18894 ft | 421 kts | 342° |
| 2026-04-30 18:21 | 52.66683 | 6.54141 | 18664 ft | 419 kts | 342° |
| 2026-04-30 18:21 | 52.69380 | 6.52482 | 18401 ft | 418 kts | 342° |
| 2026-04-30 18:21 | 52.72121 | 6.50795 | 18138 ft | 419 kts | 342° |
| 2026-04-30 18:21 | 52.74716 | 6.48562 | 17867 ft | 423 kts | 326° |
| 2026-04-30 18:22 | 52.76851 | 6.45206 | 17599 ft | 425 kts | 308° |
| 2026-04-30 18:22 | 52.79014 | 6.36265 | 17077 ft | 423 kts | 273° |
| 2026-04-30 18:22 | 52.78849 | 6.31469 | 16927 ft | 416 kts | 255° |
| 2026-04-30 18:23 | 52.77854 | 6.27012 | 16924 ft | 412 kts | 238° |
| 2026-04-30 18:23 | 52.76286 | 6.23140 | 16922 ft | 410 kts | 230° |
| 2026-04-30 18:23 | 52.74543 | 6.19405 | 16545 ft | 413 kts | 229° |
| 2026-04-30 18:23 | 52.72836 | 6.15619 | 16021 ft | 408 kts | 231° |
| 2026-04-30 18:24 | 52.69709 | 6.07878 | 15011 ft | 403 kts | 234° |
| 2026-04-30 18:24 | 52.68245 | 6.03960 | 14516 ft | 400 kts | 235° |
| 2026-04-30 18:24 | 52.66817 | 6.00040 | 13998 ft | 397 kts | 236° |
| 2026-04-30 18:25 | 52.65414 | 5.96149 | 13462 ft | 392 kts | 236° |
| 2026-04-30 18:25 | 52.62659 | 5.88488 | 12491 ft | 386 kts | 236° |
| 2026-04-30 18:25 | 52.61295 | 5.84701 | 11988 ft | 383 kts | 236° |
| 2026-04-30 18:26 | 52.58595 | 5.77229 | 11180 ft | 376 kts | 236° |
| 2026-04-30 18:26 | 52.57270 | 5.73569 | 11018 ft | 363 kts | 236° |
| 2026-04-30 18:26 | 52.56033 | 5.70143 | 10910 ft | 342 kts | 235° |
| 2026-04-30 18:27 | 52.53737 | 5.63803 | 10658 ft | 305 kts | 234° |
| 2026-04-30 18:27 | 52.52656 | 5.60837 | 10530 ft | 306 kts | 234° |
| 2026-04-30 18:28 | 52.50646 | 5.54723 | 10289 ft | 305 kts | 243° |
| 2026-04-30 18:28 | 52.49880 | 5.51457 | 10234 ft | 307 kts | 246° |
| 2026-04-30 18:28 | 52.48455 | 5.44853 | 10115 ft | 305 kts | 246° |
| 2026-04-30 18:29 | 52.47755 | 5.41573 | 10051 ft | 304 kts | 246° |
| 2026-04-30 18:29 | 52.45653 | 5.31754 | 9859 ft | 304 kts | 246° |
| 2026-04-30 18:30 | 52.44249 | 5.25235 | 9718 ft | 303 kts | 246° |
| 2026-04-30 18:30 | 52.42841 | 5.18722 | 9590 ft | 303 kts | 246° |
| 2026-04-30 18:31 | 52.42138 | 5.15475 | 9521 ft | 302 kts | 246° |
| 2026-04-30 18:31 | 52.40732 | 5.09002 | 9398 ft | 301 kts | 246° |
| 2026-04-30 18:32 | 52.39337 | 5.02600 | 9268 ft | 300 kts | 246° |
| 2026-04-30 18:32 | 52.38635 | 4.99385 | 9210 ft | 300 kts | 246° |
| 2026-04-30 18:32 | 52.37231 | 4.92971 | 9094 ft | 298 kts | 246° |
| 2026-04-30 18:33 | 52.36531 | 4.89780 | 9024 ft | 298 kts | 246° |
| 2026-04-30 18:33 | 52.35641 | 4.83175 | 8751 ft | 302 kts | 269° |
| 2026-04-30 18:33 | 52.35767 | 4.79728 | 8669 ft | 305 kts | 271° |
| 2026-04-30 18:34 | 52.35941 | 4.76270 | 8594 ft | 305 kts | 272° |
| 2026-04-30 18:34 | 52.36302 | 4.69340 | 8161 ft | 305 kts | 272° |
| 2026-04-30 18:34 | 52.36487 | 4.65897 | 7788 ft | 302 kts | 272° |
| 2026-04-30 18:35 | 52.36675 | 4.62458 | 7272 ft | 303 kts | 272° |
| 2026-04-30 18:35 | 52.36861 | 4.59124 | 6936 ft | 283 kts | 272° |
| 2026-04-30 18:35 | 52.37043 | 4.56049 | 6707 ft | 265 kts | 272° |
| 2026-04-30 18:36 | 52.36890 | 4.50186 | 6365 ft | 254 kts | 245° |
| 2026-04-30 18:36 | 52.36254 | 4.47489 | 6180 ft | 250 kts | 242° |
| 2026-04-30 18:36 | 52.34959 | 4.42276 | 5138 ft | 248 kts | 242° |
| 2026-04-30 18:37 | 52.34309 | 4.39684 | 4761 ft | 245 kts | 242° |
| 2026-04-30 18:37 | 52.33664 | 4.37111 | 4405 ft | 242 kts | 242° |
| 2026-04-30 18:37 | 52.33043 | 4.34611 | 4299 ft | 242 kts | 242° |
| 2026-04-30 18:37 | 52.32410 | 4.32051 | 4306 ft | 243 kts | 242° |
| 2026-04-30 18:38 | 52.31779 | 4.29498 | 4297 ft | 243 kts | 242° |
| 2026-04-30 18:38 | 52.31142 | 4.26938 | 4296 ft | 243 kts | 242° |
| 2026-04-30 18:38 | 52.30505 | 4.24383 | 4300 ft | 243 kts | 242° |
| 2026-04-30 18:38 | 52.29870 | 4.21823 | 4301 ft | 243 kts | 242° |
| 2026-04-30 18:39 | 52.29114 | 4.19401 | 4278 ft | 235 kts | 224° |
| 2026-04-30 18:39 | 52.27837 | 4.17928 | 4283 ft | 220 kts | 192° |
| 2026-04-30 18:39 | 52.26364 | 4.17858 | 4291 ft | 210 kts | 160° |
| 2026-04-30 18:39 | 52.25176 | 4.19142 | 4291 ft | 208 kts | 128° |
| 2026-04-30 18:40 | 52.24625 | 4.21316 | 4317 ft | 211 kts | 104° |
| 2026-04-30 18:40 | 52.24395 | 4.23709 | 4295 ft | 214 kts | 102° |
| 2026-04-30 18:40 | 52.24188 | 4.26103 | 4292 ft | 212 kts | 102° |
| 2026-04-30 18:40 | 52.23988 | 4.28442 | 3622 ft | 210 kts | 102° |
| 2026-04-30 18:41 | 52.23797 | 4.30763 | 3079 ft | 200 kts | 101° |
| 2026-04-30 18:41 | 52.23596 | 4.33030 | 2712 ft | 203 kts | 102° |
| 2026-04-30 18:41 | 52.23379 | 4.35284 | 2347 ft | 200 kts | 101° |
| 2026-04-30 18:41 | 52.23151 | 4.37498 | 2014 ft | 195 kts | 102° |
| 2026-04-30 18:42 | 52.22917 | 4.39682 | 1971 ft | 197 kts | 102° |
| 2026-04-30 18:42 | 52.22443 | 4.44070 | 1962 ft | 196 kts | 102° |
| 2026-04-30 18:42 | 52.22220 | 4.46232 | 1962 ft | 196 kts | 98° |
| 2026-04-30 18:45 | 52.25507 | 4.64846 | 1293 ft | 148 kts | 67° |
| 2026-04-30 18:45 | 52.26051 | 4.66269 | 1101 ft | 148 kts | 64° |
| 2026-04-30 18:45 | 52.26602 | 4.67695 | 886 ft | 149 kts | 63° |
| 2026-04-30 18:46 | 52.27162 | 4.69138 | 673 ft | 152 kts | 62° |
| 2026-04-30 18:46 | 52.27730 | 4.70612 | 469 ft | 154 kts | 63° |
| 2026-04-30 18:46 | 52.28297 | 4.72115 | 265 ft | 156 kts | 61° |
| 2026-04-30 18:46 | 52.28866 | 4.73604 | 59 ft | 156 kts | 62° |
| 2026-04-30 18:47 | 52.29389 | 4.74973 | 5 ft | 122 kts | 58° |
| 2026-04-30 18:47 | 52.29776 | 4.75976 | 2 ft | 87 kts | 58° |
| 2026-04-30 18:47 | 52.30033 | 4.76644 | 4 ft | 52 kts | 57° |
| 2026-04-30 18:47 | 52.30183 | 4.77032 | 2 ft | 36 kts | 58° |
| 2026-04-30 18:48 | 52.30301 | 4.77348 | 1 ft | 28 kts | 60° |
| 2026-04-30 18:48 | 52.30284 | 4.77525 | 5 ft | 13 kts | 141° |
| 2026-04-30 18:48 | 52.30208 | 4.77531 | 6 ft | 11 kts | 208° |
| 2026-04-30 18:48 | 52.30186 | 4.77509 | 3 ft | 0 kts | 212° |
| 2026-04-30 18:49 | 52.30185 | 4.77507 | 3 ft | 1 kts | 213° |
| 2026-04-30 18:49 | 52.30178 | 4.77499 | 4 ft | 2 kts | 216° |
| 2026-04-30 18:49 | 52.30165 | 4.77481 | 2 ft | 3 kts | 221° |
| 2026-04-30 18:50 | 52.30147 | 4.77451 | 2 ft | 4 kts | 226° |
| 2026-04-30 18:50 | 52.30124 | 4.77405 | 3 ft | 5 kts | 236° |
| 2026-04-30 18:50 | 52.30104 | 4.77355 | 4 ft | 5 kts | 237° |
| 2026-04-30 18:50 | 52.30085 | 4.77305 | 6 ft | 6 kts | 237° |
| 2026-04-30 18:51 | 52.30059 | 4.77241 | 5 ft | 8 kts | 237° |
| 2026-04-30 18:51 | 52.30022 | 4.77148 | 6 ft | 13 kts | 237° |
| 2026-04-30 18:51 | 52.29962 | 4.76993 | 8 ft | 20 kts | 237° |
| 2026-04-30 18:51 | 52.29858 | 4.76805 | 4 ft | 23 kts | 230° |
| 2026-04-30 18:52 | 52.29775 | 4.76602 | 4 ft | 21 kts | 237° |
| 2026-04-30 18:52 | 52.29699 | 4.76402 | 4 ft | 19 kts | 238° |
| 2026-04-30 18:52 | 52.29656 | 4.76343 | 4 ft | 4 kts | 180° |
| 2026-04-30 18:52 | 52.29632 | 4.76357 | 4 ft | 3 kts | 158° |
| 2026-04-30 18:53 | 52.29612 | 4.76377 | 4 ft | 4 kts | 145° |
| 2026-04-30 18:53 | 52.29590 | 4.76401 | 4 ft | 3 kts | 148° |
| 2026-04-30 18:53 | 52.29578 | 4.76413 | 4 ft | 0 kts | 147° |